sensor_id;sensor_type;location;lat;lon;timestamp;pressure;altitude;pressure_sealevel;temperature;humidity
40982;BME280;26708;50.304;19.028;2023-03-21T00:00:30;98322.63;;;11.38;66.84
40982;BME280;26708;50.304;19.028;2023-03-21T00:02:35;98319.13;;;11.38;66.82
40982;BME280;26708;50.304;19.028;2023-03-21T00:04:43;98307.84;;;11.30;66.75
40982;BME280;26708;50.304;19.028;2023-03-21T00:06:47;98318.28;;;11.34;66.93
40982;BME280;26708;50.304;19.028;2023-03-21T00:08:52;98285.34;;;11.12;66.80
40982;BME280;26708;50.304;19.028;2023-03-21T00:11:00;98305.28;;;11.25;67.05
40982;BME280;26708;50.304;19.028;2023-03-21T00:13:06;98277.59;;;11.00;67.28
40982;BME280;26708;50.304;19.028;2023-03-21T00:15:13;98292.38;;;11.09;67.47
40982;BME280;26708;50.304;19.028;2023-03-21T00:17:19;98307.09;;;11.20;67.59
40982;BME280;26708;50.304;19.028;2023-03-21T00:19:24;98300.13;;;11.19;67.60
40982;BME280;26708;50.304;19.028;2023-03-21T00:21:32;98299.28;;;11.13;67.58
40982;BME280;26708;50.304;19.028;2023-03-21T00:23:39;98301.88;;;11.17;67.59
40982;BME280;26708;50.304;19.028;2023-03-21T00:25:44;98273.28;;;10.96;67.72
40982;BME280;26708;50.304;19.028;2023-03-21T00:27:48;98304.53;;;11.13;67.67
40982;BME280;26708;50.304;19.028;2023-03-21T00:29:54;98291.47;;;11.08;67.88
40982;BME280;26708;50.304;19.028;2023-03-21T00:31:58;98298.44;;;11.12;67.84
40982;BME280;26708;50.304;19.028;2023-03-21T00:34:03;98294.09;;;11.10;67.72
40982;BME280;26708;50.304;19.028;2023-03-21T00:36:10;98292.38;;;11.09;67.74
40982;BME280;26708;50.304;19.028;2023-03-21T00:38:18;98288.91;;;11.02;67.67
40982;BME280;26708;50.304;19.028;2023-03-21T00:40:23;98281.97;;;11.00;67.44
40982;BME280;26708;50.304;19.028;2023-03-21T00:42:29;98291.56;;;10.99;67.37
40982;BME280;26708;50.304;19.028;2023-03-21T00:44:33;98241.16;;;10.70;67.54
40982;BME280;26708;50.304;19.028;2023-03-21T00:46:40;98278.56;;;10.89;67.39
40982;BME280;26708;50.304;19.028;2023-03-21T00:48:45;98297.66;;;11.01;67.21
40982;BME280;26708;50.304;19.028;2023-03-21T00:50:52;98289.88;;;10.91;67.26
40982;BME280;26708;50.304;19.028;2023-03-21T00:52:59;98287.31;;;10.89;66.97
40982;BME280;26708;50.304;19.028;2023-03-21T00:55:13;98235.16;;;10.56;66.93
40982;BME280;26708;50.304;19.028;2023-03-21T00:57:19;98304.72;;;10.92;67.11
40982;BME280;26708;50.304;19.028;2023-03-21T00:59:24;98302.13;;;10.90;67.20
40982;BME280;26708;50.304;19.028;2023-03-21T01:01:29;98308.22;;;10.91;67.39
40982;BME280;26708;50.304;19.028;2023-03-21T01:03:34;98291.66;;;10.83;67.39
40982;BME280;26708;50.304;19.028;2023-03-21T01:05:47;98259.53;;;10.67;67.74
40982;BME280;26708;50.304;19.028;2023-03-21T01:08:08;98298.66;;;10.88;68.00
40982;BME280;26708;50.304;19.028;2023-03-21T01:10:15;98303.00;;;10.89;68.03
40982;BME280;26708;50.304;19.028;2023-03-21T01:12:20;98279.53;;;10.74;68.24
40982;BME280;26708;50.304;19.028;2023-03-21T01:14:26;98286.47;;;10.81;68.25
40982;BME280;26708;50.304;19.028;2023-03-21T01:16:30;98298.63;;;10.87;68.27
40982;BME280;26708;50.304;19.028;2023-03-21T01:18:38;98295.13;;;10.86;68.46
40982;BME280;26708;50.304;19.028;2023-03-21T01:20:46;98296.88;;;10.90;68.47
40982;BME280;26708;50.304;19.028;2023-03-21T01:22:51;98299.47;;;10.93;68.50
40982;BME280;26708;50.304;19.028;2023-03-21T01:24:56;98301.19;;;10.97;68.35
40982;BME280;26708;50.304;19.028;2023-03-21T01:27:04;98283.75;;;10.93;68.21
40982;BME280;26708;50.304;19.028;2023-03-21T01:29:08;98253.31;;;10.77;68.10
40982;BME280;26708;50.304;19.028;2023-03-21T01:31:15;98282.88;;;10.96;67.87
40982;BME280;26708;50.304;19.028;2023-03-21T01:33:22;98257.66;;;10.81;67.86
40982;BME280;26708;50.304;19.028;2023-03-21T01:35:27;98272.38;;;10.97;67.81
40982;BME280;26708;50.304;19.028;2023-03-21T01:37:32;98292.41;;;11.03;67.82
40982;BME280;26708;50.304;19.028;2023-03-21T01:39:37;98295.88;;;11.03;68.02
40982;BME280;26708;50.304;19.028;2023-03-21T01:41:42;98277.59;;;10.99;67.94
40982;BME280;26708;50.304;19.028;2023-03-21T01:43:59;98291.53;;;11.05;67.89
40982;BME280;26708;50.304;19.028;2023-03-21T01:46:36;98291.47;;;11.08;68.06
40982;BME280;26708;50.304;19.028;2023-03-21T01:48:52;98253.22;;;10.91;68.02
40982;BME280;26708;50.304;19.028;2023-03-21T01:50:59;98286.19;;;11.14;67.73
40982;BME280;26708;50.304;19.028;2023-03-21T01:53:15;98285.31;;;11.14;67.61
40982;BME280;26708;50.304;19.028;2023-03-21T01:55:22;98286.19;;;11.14;67.70
40982;BME280;26708;50.304;19.028;2023-03-21T01:57:39;98283.56;;;11.16;67.52
40982;BME280;26708;50.304;19.028;2023-03-21T01:59:51;98282.69;;;11.15;67.38
40982;BME280;26708;50.304;19.028;2023-03-21T02:02:19;98288.81;;;11.14;67.46
40982;BME280;26708;50.304;19.028;2023-03-21T02:04:40;98272.31;;;11.08;67.32
40982;BME280;26708;50.304;19.028;2023-03-21T02:07:05;98260.97;;;11.03;67.19
40982;BME280;26708;50.304;19.028;2023-03-21T02:09:25;98232.28;;;10.86;67.17
40982;BME280;26708;50.304;19.028;2023-03-21T02:11:38;98280.94;;;11.16;67.17
40982;BME280;26708;50.304;19.028;2023-03-21T02:13:48;98272.22;;;11.17;67.13
40982;BME280;26708;50.304;19.028;2023-03-21T02:16:00;98277.41;;;11.20;67.13
40982;BME280;26708;50.304;19.028;2023-03-21T02:18:23;98228.78;;;10.92;67.21
40982;BME280;26708;50.304;19.028;2023-03-21T02:20:59;98261.72;;;11.15;67.18
40982;BME280;26708;50.304;19.028;2023-03-21T02:24:01;98261.72;;;11.17;67.03
40982;BME280;26708;50.304;19.028;2023-03-21T02:26:45;98265.16;;;11.22;66.95
40982;BME280;26708;50.304;19.028;2023-03-21T02:29:22;98246.97;;;11.08;66.89
40982;BME280;26708;50.304;19.028;2023-03-21T02:32:09;98267.81;;;11.20;66.97
40982;BME280;26708;50.304;19.028;2023-03-21T02:34:56;98272.16;;;11.18;67.04
40982;BME280;26708;50.304;19.028;2023-03-21T02:37:25;98275.66;;;11.20;67.08
40982;BME280;26708;50.304;19.028;2023-03-21T02:39:55;98233.97;;;10.98;67.03
40982;BME280;26708;50.304;19.028;2023-03-21T02:42:18;98276.56;;;11.19;66.89
40982;BME280;26708;50.304;19.028;2023-03-21T02:44:37;98258.31;;;11.07;66.86
40982;BME280;26708;50.304;19.028;2023-03-21T02:46:58;98282.69;;;11.17;66.87
40982;BME280;26708;50.304;19.028;2023-03-21T02:49:17;98271.38;;;11.13;66.87
40982;BME280;26708;50.304;19.028;2023-03-21T02:51:32;98274.00;;;11.12;66.99
40982;BME280;26708;50.304;19.028;2023-03-21T02:53:48;98208.03;;;10.69;66.97
40982;BME280;26708;50.304;19.028;2023-03-21T02:55:58;98286.25;;;11.10;67.05
40982;BME280;26708;50.304;19.028;2023-03-21T02:58:12;98284.47;;;11.10;67.08
40982;BME280;26708;50.304;19.028;2023-03-21T03:00:30;98250.66;;;10.89;67.17
40982;BME280;26708;50.304;19.028;2023-03-21T03:02:38;98283.63;;;11.10;67.20
40982;BME280;26708;50.304;19.028;2023-03-21T03:04:44;98244.50;;;10.87;66.99
40982;BME280;26708;50.304;19.028;2023-03-21T03:07:09;98232.31;;;10.85;67.05
40982;BME280;26708;50.304;19.028;2023-03-21T03:09:35;98247.94;;;10.95;67.00
40982;BME280;26708;50.304;19.028;2023-03-21T03:11:58;98275.78;;;11.08;67.05
40982;BME280;26708;50.304;19.028;2023-03-21T03:14:34;98262.72;;;11.04;67.04
40982;BME280;26708;50.304;19.028;2023-03-21T03:17:02;98277.53;;;11.08;66.88
40982;BME280;26708;50.304;19.028;2023-03-21T03:19:25;98264.50;;;11.02;66.98
40982;BME280;26708;50.304;19.028;2023-03-21T03:21:39;98281.00;;;11.08;66.91
40982;BME280;26708;50.304;19.028;2023-03-21T03:23:53;98274.03;;;11.07;66.91
40982;BME280;26708;50.304;19.028;2023-03-21T03:26:08;98283.63;;;11.08;67.01
40982;BME280;26708;50.304;19.028;2023-03-21T03:28:22;98260.13;;;11.01;66.99
40982;BME280;26708;50.304;19.028;2023-03-21T03:30:36;98251.44;;;10.97;67.04
40982;BME280;26708;50.304;19.028;2023-03-21T03:32:48;98268.75;;;11.10;67.08
40982;BME280;26708;50.304;19.028;2023-03-21T03:34:57;98274.00;;;11.10;66.97
40982;BME280;26708;50.304;19.028;2023-03-21T03:37:09;98264.44;;;11.08;66.95
40982;BME280;26708;50.304;19.028;2023-03-21T03:39:17;98257.47;;;11.02;66.93
40982;BME280;26708;50.304;19.028;2023-03-21T03:41:41;98265.28;;;11.08;67.10
40982;BME280;26708;50.304;19.028;2023-03-21T03:43:53;98266.16;;;11.09;66.84
40982;BME280;26708;50.304;19.028;2023-03-21T03:46:09;98273.16;;;11.08;66.82
40982;BME280;26708;50.304;19.028;2023-03-21T03:48:25;98275.78;;;11.08;66.80
40982;BME280;26708;50.304;19.028;2023-03-21T03:50:40;98273.19;;;11.05;66.74
40982;BME280;26708;50.304;19.028;2023-03-21T03:52:55;98268.84;;;11.04;66.87
40982;BME280;26708;50.304;19.028;2023-03-21T03:55:06;98251.50;;;10.90;66.79
40982;BME280;26708;50.304;19.028;2023-03-21T03:57:19;98270.56;;;11.02;66.98
40982;BME280;26708;50.304;19.028;2023-03-21T03:59:25;98272.31;;;11.03;66.90
40982;BME280;26708;50.304;19.028;2023-03-21T04:01:42;98249.75;;;10.90;67.01
40982;BME280;26708;50.304;19.028;2023-03-21T04:03:48;98263.66;;;10.98;66.85
40982;BME280;26708;50.304;19.028;2023-03-21T04:05:52;98276.69;;;11.04;66.87
40982;BME280;26708;50.304;19.028;2023-03-21T04:07:57;98274.06;;;11.03;66.75
40982;BME280;26708;50.304;19.028;2023-03-21T04:10:10;98194.19;;;10.57;66.76
40982;BME280;26708;50.304;19.028;2023-03-21T04:12:19;98241.06;;;10.82;66.85
40982;BME280;26708;50.304;19.028;2023-03-21T04:14:40;98268.88;;;10.98;66.84
40982;BME280;26708;50.304;19.028;2023-03-21T04:16:46;98271.50;;;10.98;66.93
40982;BME280;26708;50.304;19.028;2023-03-21T04:18:50;98234.16;;;10.72;66.99
40982;BME280;26708;50.304;19.028;2023-03-21T04:20:55;98276.75;;;10.97;66.91
40982;BME280;26708;50.304;19.028;2023-03-21T04:23:04;98257.63;;;10.90;67.05
40982;BME280;26708;50.304;19.028;2023-03-21T04:25:10;98281.97;;;10.98;66.84
40982;BME280;26708;50.304;19.028;2023-03-21T04:27:18;98269.78;;;10.94;66.97
40982;BME280;26708;50.304;19.028;2023-03-21T04:29:41;98273.25;;;10.98;66.87
40982;BME280;26708;50.304;19.028;2023-03-21T04:32:05;98269.78;;;10.96;66.88
40982;BME280;26708;50.304;19.028;2023-03-21T04:34:19;98242.84;;;10.76;66.90
40982;BME280;26708;50.304;19.028;2023-03-21T04:36:27;98254.13;;;10.84;66.93
40982;BME280;26708;50.304;19.028;2023-03-21T04:38:40;98276.75;;;10.95;67.00
40982;BME280;26708;50.304;19.028;2023-03-21T04:40:50;98274.13;;;10.95;66.88
40982;BME280;26708;50.304;19.028;2023-03-21T04:42:59;98270.66;;;10.96;66.81
40982;BME280;26708;50.304;19.028;2023-03-21T04:45:05;98268.94;;;10.94;66.90
40982;BME280;26708;50.304;19.028;2023-03-21T04:47:12;98247.19;;;10.81;67.04
40982;BME280;26708;50.304;19.028;2023-03-21T04:49:18;98247.19;;;10.81;66.95
40982;BME280;26708;50.304;19.028;2023-03-21T04:51:23;98262.81;;;10.93;66.95
40982;BME280;26708;50.304;19.028;2023-03-21T04:53:30;98269.78;;;10.94;66.89
40982;BME280;26708;50.304;19.028;2023-03-21T04:55:36;98227.22;;;10.68;66.70
40982;BME280;26708;50.304;19.028;2023-03-21T04:57:40;98272.44;;;10.91;67.00
40982;BME280;26708;50.304;19.028;2023-03-21T04:59:47;98240.28;;;10.74;67.00
40982;BME280;26708;50.304;19.028;2023-03-21T05:01:53;98266.31;;;10.92;66.93
40982;BME280;26708;50.304;19.028;2023-03-21T05:04:00;98262.84;;;10.90;66.97
40982;BME280;26708;50.304;19.028;2023-03-21T05:06:09;98253.31;;;10.77;66.94
40982;BME280;26708;50.304;19.028;2023-03-21T05:08:15;98268.97;;;10.88;66.96
40982;BME280;26708;50.304;19.028;2023-03-21T05:10:19;98275.94;;;10.86;67.03
40982;BME280;26708;50.304;19.028;2023-03-21T05:12:24;98268.94;;;10.86;67.11
40982;BME280;26708;50.304;19.028;2023-03-21T05:14:29;98243.81;;;10.69;67.04
40982;BME280;26708;50.304;19.028;2023-03-21T05:16:38;98274.25;;;10.76;67.05
40982;BME280;26708;50.304;19.028;2023-03-21T05:18:45;98274.25;;;10.76;67.40
40982;BME280;26708;50.304;19.028;2023-03-21T05:20:56;98258.69;;;10.62;67.37
40982;BME280;26708;50.304;19.028;2023-03-21T05:23:00;98245.63;;;10.61;67.37
40982;BME280;26708;50.304;19.028;2023-03-21T05:25:06;98276.88;;;10.80;67.35
40982;BME280;26708;50.304;19.028;2023-03-21T05:27:43;98236.94;;;10.53;67.44
40982;BME280;26708;50.304;19.028;2023-03-21T05:29:58;98282.13;;;10.79;67.36
40982;BME280;26708;50.304;19.028;2023-03-21T05:32:07;98226.53;;;10.45;67.44
40982;BME280;26708;50.304;19.028;2023-03-21T05:34:13;98282.16;;;10.74;67.55
40982;BME280;26708;50.304;19.028;2023-03-21T05:36:19;98291.69;;;10.78;67.44
40982;BME280;26708;50.304;19.028;2023-03-21T05:38:24;98294.31;;;10.78;67.48
40982;BME280;26708;50.304;19.028;2023-03-21T05:40:30;98220.53;;;10.31;67.53
40982;BME280;26708;50.304;19.028;2023-03-21T05:42:36;98301.31;;;10.75;67.74
40982;BME280;26708;50.304;19.028;2023-03-21T05:44:49;98286.50;;;10.72;67.88
40982;BME280;26708;50.304;19.028;2023-03-21T05:47:00;98289.13;;;10.72;68.10
40982;BME280;26708;50.304;19.028;2023-03-21T05:49:16;98287.38;;;10.73;68.04
40982;BME280;26708;50.304;19.028;2023-03-21T05:51:26;98287.38;;;10.71;68.06
40982;BME280;26708;50.304;19.028;2023-03-21T05:53:31;98292.63;;;10.73;68.13
40982;BME280;26708;50.304;19.028;2023-03-21T05:55:36;98283.94;;;10.69;67.94
40982;BME280;26708;50.304;19.028;2023-03-21T05:57:46;98288.31;;;10.69;68.18
40982;BME280;26708;50.304;19.028;2023-03-21T05:59:55;98245.72;;;10.47;68.29
40982;BME280;26708;50.304;19.028;2023-03-21T06:02:01;98287.38;;;10.74;68.19
40982;BME280;26708;50.304;19.028;2023-03-21T06:04:07;98291.69;;;10.78;68.08
40982;BME280;26708;50.304;19.028;2023-03-21T06:06:17;98273.41;;;10.72;68.06
40982;BME280;26708;50.304;19.028;2023-03-21T06:08:30;98296.88;;;10.90;68.17
40982;BME280;26708;50.304;19.028;2023-03-21T06:10:35;98288.09;;;10.94;68.05
40982;BME280;26708;50.304;19.028;2023-03-21T06:12:40;98237.69;;;10.68;68.01
40982;BME280;26708;50.304;19.028;2023-03-21T06:15:08;98238.53;;;10.72;67.47
40982;BME280;26708;50.304;19.028;2023-03-21T06:17:34;98295.88;;;11.05;67.60
40982;BME280;26708;50.304;19.028;2023-03-21T06:19:44;98249.97;;;10.59;67.39
40982;BME280;26708;50.304;19.028;2023-03-21T06:21:57;98248.16;;;10.68;67.55
40982;BME280;26708;50.304;19.028;2023-03-21T06:24:03;98269.81;;;10.87;67.42
40982;BME280;26708;50.304;19.028;2023-03-21T06:26:08;98215.16;;;10.52;67.50
40982;BME280;26708;50.304;19.028;2023-03-21T06:28:14;98301.13;;;11.05;67.67
40982;BME280;26708;50.304;19.028;2023-03-21T06:30:19;98304.56;;;11.08;67.52
40982;BME280;26708;50.304;19.028;2023-03-21T06:32:39;98298.44;;;11.12;67.53
40982;BME280;26708;50.304;19.028;2023-03-21T06:34:47;98297.56;;;11.13;67.03
40982;BME280;26708;50.304;19.028;2023-03-21T06:36:52;98306.25;;;11.14;66.97
40982;BME280;26708;50.304;19.028;2023-03-21T06:39:06;98314.13;;;11.15;66.82
40982;BME280;26708;50.304;19.028;2023-03-21T06:41:17;98318.47;;;11.16;66.87
40982;BME280;26708;50.304;19.028;2023-03-21T06:43:35;98307.16;;;11.13;66.64
40982;BME280;26708;50.304;19.028;2023-03-21T06:45:44;98283.72;;;10.98;66.76
40982;BME280;26708;50.304;19.028;2023-03-21T06:47:49;98316.78;;;11.12;66.87
40982;BME280;26708;50.304;19.028;2023-03-21T06:50:14;98320.28;;;11.10;66.83
40982;BME280;26708;50.304;19.028;2023-03-21T06:52:20;98322.91;;;11.08;67.13
40982;BME280;26708;50.304;19.028;2023-03-21T06:54:30;98265.56;;;10.75;67.16
40982;BME280;26708;50.304;19.028;2023-03-21T06:56:42;98319.44;;;11.06;67.29
40982;BME280;26708;50.304;19.028;2023-03-21T06:58:55;98327.31;;;11.06;67.26
40982;BME280;26708;50.304;19.028;2023-03-21T07:01:31;98323.00;;;11.01;67.01
40982;BME280;26708;50.304;19.028;2023-03-21T07:03:40;98326.50;;;11.00;67.22
40982;BME280;26708;50.304;19.028;2023-03-21T07:05:46;98279.53;;;10.73;67.16
40982;BME280;26708;50.304;19.028;2023-03-21T07:07:52;98329.06;;;11.01;67.15
40982;BME280;26708;50.304;19.028;2023-03-21T07:10:04;98330.81;;;11.04;67.17
40982;BME280;26708;50.304;19.028;2023-03-21T07:12:21;98335.16;;;11.05;67.16
40982;BME280;26708;50.304;19.028;2023-03-21T07:14:40;98322.16;;;10.94;66.50
40982;BME280;26708;50.304;19.028;2023-03-21T07:16:44;98331.72;;;10.97;66.67
40982;BME280;26708;50.304;19.028;2023-03-21T07:18:50;98329.19;;;10.88;66.86
40982;BME280;26708;50.304;19.028;2023-03-21T07:20:55;98339.63;;;10.91;66.86
40982;BME280;26708;50.304;19.028;2023-03-21T07:23:00;98342.28;;;10.89;67.18
40982;BME280;26708;50.304;19.028;2023-03-21T07:25:09;98324.88;;;10.75;67.05
40982;BME280;26708;50.304;19.028;2023-03-21T07:27:15;98334.44;;;10.85;67.28
40982;BME280;26708;50.304;19.028;2023-03-21T07:29:21;98284.06;;;10.51;67.01
40982;BME280;26708;50.304;19.028;2023-03-21T07:31:27;98323.16;;;10.77;67.10
40982;BME280;26708;50.304;19.028;2023-03-21T07:33:32;98343.97;;;10.93;67.35
40982;BME280;26708;50.304;19.028;2023-03-21T07:35:37;98341.34;;;10.96;67.05
40982;BME280;26708;50.304;19.028;2023-03-21T07:37:44;98298.72;;;10.75;66.96
40982;BME280;26708;50.304;19.028;2023-03-21T07:39:51;98342.13;;;11.06;67.18
40982;BME280;26708;50.304;19.028;2023-03-21T07:42:00;98342.97;;;11.11;66.76
40982;BME280;26708;50.304;19.028;2023-03-21T07:44:12;98289.97;;;10.76;66.65
40982;BME280;26708;50.304;19.028;2023-03-21T07:46:18;98318.63;;;11.00;66.58
40982;BME280;26708;50.304;19.028;2023-03-21T07:48:23;98346.34;;;11.22;66.58
40982;BME280;26708;50.304;19.028;2023-03-21T07:50:29;98275.09;;;10.82;66.21
40982;BME280;26708;50.304;19.028;2023-03-21T07:52:34;98297.66;;;11.03;66.06
40982;BME280;26708;50.304;19.028;2023-03-21T07:54:39;98321.97;;;11.15;65.79
40982;BME280;26708;50.304;19.028;2023-03-21T07:56:44;98353.25;;;11.33;65.77
40982;BME280;26708;50.304;19.028;2023-03-21T07:58:51;98351.47;;;11.38;65.45
40982;BME280;26708;50.304;19.028;2023-03-21T08:00:59;98348.84;;;11.38;65.36
40982;BME280;26708;50.304;19.028;2023-03-21T08:03:04;98262.81;;;10.92;65.12
40982;BME280;26708;50.304;19.028;2023-03-21T08:05:09;98350.56;;;11.42;65.27
40982;BME280;26708;50.304;19.028;2023-03-21T08:07:14;98261.97;;;10.90;64.86
40982;BME280;26708;50.304;19.028;2023-03-21T08:09:19;98352.25;;;11.46;65.30
40982;BME280;26708;50.304;19.028;2023-03-21T08:11:24;98357.50;;;11.45;64.84
40982;BME280;26708;50.304;19.028;2023-03-21T08:13:31;98286.34;;;10.99;64.95
40982;BME280;26708;50.304;19.028;2023-03-21T08:15:40;98354.00;;;11.46;65.07
40982;BME280;26708;50.304;19.028;2023-03-21T08:17:45;98360.06;;;11.49;64.86
40982;BME280;26708;50.304;19.028;2023-03-21T08:19:49;98358.28;;;11.54;64.70
40982;BME280;26708;50.304;19.028;2023-03-21T08:21:55;98349.63;;;11.46;64.65
40982;BME280;26708;50.304;19.028;2023-03-21T08:23:59;98360.03;;;11.55;64.83
40982;BME280;26708;50.304;19.028;2023-03-21T08:26:05;98364.38;;;11.59;64.41
40982;BME280;26708;50.304;19.028;2023-03-21T08:28:11;98357.41;;;11.57;64.03
40982;BME280;26708;50.304;19.028;2023-03-21T08:30:18;98360.88;;;11.57;63.91
40982;BME280;26708;50.304;19.028;2023-03-21T08:32:27;98359.13;;;11.59;64.20
40982;BME280;26708;50.304;19.028;2023-03-21T08:34:33;98333.91;;;11.46;64.34
40982;BME280;26708;50.304;19.028;2023-03-21T08:36:43;98248.75;;;11.05;64.28
40982;BME280;26708;50.304;19.028;2023-03-21T08:38:50;98362.44;;;11.76;63.54
40982;BME280;26708;50.304;19.028;2023-03-21T08:41:06;98229.69;;;10.89;63.23
40982;BME280;26708;50.304;19.028;2023-03-21T08:43:10;98323.31;;;11.58;63.27
40982;BME280;26708;50.304;19.028;2023-03-21T08:45:18;98371.88;;;11.92;63.26
40982;BME280;26708;50.304;19.028;2023-03-21T08:47:27;98333.53;;;11.81;63.13
40982;BME280;26708;50.304;19.028;2023-03-21T08:49:33;98265.81;;;11.42;62.40
40982;BME280;26708;50.304;19.028;2023-03-21T08:51:38;98273.56;;;11.52;62.22
40982;BME280;26708;50.304;19.028;2023-03-21T08:53:47;98344.75;;;11.94;62.13
40982;BME280;26708;50.304;19.028;2023-03-21T08:55:52;98369.06;;;12.13;61.94
40982;BME280;26708;50.304;19.028;2023-03-21T08:57:57;98265.72;;;11.49;61.31
40982;BME280;26708;50.304;19.028;2023-03-21T09:00:07;98370.78;;;12.14;61.28
40982;BME280;26708;50.304;19.028;2023-03-21T09:02:16;98375.13;;;12.15;61.07
40982;BME280;26708;50.304;19.028;2023-03-21T09:04:23;98372.56;;;12.12;60.43
40982;BME280;26708;50.304;19.028;2023-03-21T09:06:31;98357.81;;;11.99;60.86
40982;BME280;26708;50.304;19.028;2023-03-21T09:08:36;98365.69;;;11.99;60.91
40982;BME280;26708;50.304;19.028;2023-03-21T09:10:43;98377.91;;;11.98;60.95
40982;BME280;26708;50.304;19.028;2023-03-21T09:12:51;98368.41;;;11.90;60.49
40982;BME280;26708;50.304;19.028;2023-03-21T09:14:57;98287.72;;;11.36;60.73
40982;BME280;26708;50.304;19.028;2023-03-21T09:17:02;98371.09;;;11.86;60.65
40982;BME280;26708;50.304;19.028;2023-03-21T09:19:08;98377.16;;;11.88;60.79
40982;BME280;26708;50.304;19.028;2023-03-21T09:21:16;98384.16;;;11.90;60.31
40982;BME280;26708;50.304;19.028;2023-03-21T09:23:23;98385.88;;;11.91;60.21
40982;BME280;26708;50.304;19.028;2023-03-21T09:25:28;98385.00;;;11.92;59.88
40982;BME280;26708;50.304;19.028;2023-03-21T09:27:33;98332.88;;;11.62;59.89
40982;BME280;26708;50.304;19.028;2023-03-21T09:29:38;98392.81;;;11.95;59.83
40982;BME280;26708;50.304;19.028;2023-03-21T09:31:45;98391.06;;;11.97;59.73
40982;BME280;26708;50.304;19.028;2023-03-21T09:33:51;98385.84;;;11.94;59.77
40982;BME280;26708;50.304;19.028;2023-03-21T09:35:56;98390.09;;;12.05;59.20
40982;BME280;26708;50.304;19.028;2023-03-21T09:38:05;98364.06;;;11.86;59.12
40982;BME280;26708;50.304;19.028;2023-03-21T09:40:16;98322.38;;;11.64;58.80
40982;BME280;26708;50.304;19.028;2023-03-21T09:42:34;98397.03;;;12.14;58.19
40982;BME280;26708;50.304;19.028;2023-03-21T09:45:00;98398.75;;;12.13;57.81
40982;BME280;26708;50.304;19.028;2023-03-21T09:47:16;98399.66;;;12.14;57.70
40982;BME280;26708;50.304;19.028;2023-03-21T09:49:29;98407.50;;;12.14;57.79
40982;BME280;26708;50.304;19.028;2023-03-21T09:51:42;98396.97;;;12.15;57.39
40982;BME280;26708;50.304;19.028;2023-03-21T09:53:55;98372.72;;;11.97;56.81
40982;BME280;26708;50.304;19.028;2023-03-21T09:56:09;98374.41;;;11.99;56.15
40982;BME280;26708;50.304;19.028;2023-03-21T09:58:24;98337.84;;;11.86;56.34
40982;BME280;26708;50.304;19.028;2023-03-21T10:00:35;98308.38;;;11.66;56.12
40982;BME280;26708;50.304;19.028;2023-03-21T10:02:45;98395.16;;;12.22;56.19
40982;BME280;26708;50.304;19.028;2023-03-21T10:04:53;98396.91;;;12.24;56.72
40982;BME280;26708;50.304;19.028;2023-03-21T10:07:00;98276.13;;;11.58;57.16
40982;BME280;26708;50.304;19.028;2023-03-21T10:09:14;98397.66;;;12.32;56.51
40982;BME280;26708;50.304;19.028;2023-03-21T10:11:31;98281.28;;;11.64;56.03
40982;BME280;26708;50.304;19.028;2023-03-21T10:13:50;98396.72;;;12.38;55.95
40982;BME280;26708;50.304;19.028;2023-03-21T10:16:05;98389.75;;;12.34;55.65
40982;BME280;26708;50.304;19.028;2023-03-21T10:18:22;98343.66;;;12.13;55.96
40982;BME280;26708;50.304;19.028;2023-03-21T10:20:31;98396.53;;;12.50;55.69
40982;BME280;26708;50.304;19.028;2023-03-21T10:22:38;98398.28;;;12.52;55.52
40982;BME280;26708;50.304;19.028;2023-03-21T10:24:46;98345.25;;;12.28;55.65
40982;BME280;26708;50.304;19.028;2023-03-21T10:26:53;98399.88;;;12.64;55.56
40982;BME280;26708;50.304;19.028;2023-03-21T10:29:01;98393.72;;;12.66;54.68
40982;BME280;26708;50.304;19.028;2023-03-21T10:31:10;98377.25;;;12.54;54.76
40982;BME280;26708;50.304;19.028;2023-03-21T10:33:23;98349.41;;;12.44;54.60
40982;BME280;26708;50.304;19.028;2023-03-21T10:35:31;98348.66;;;12.33;54.18
40982;BME280;26708;50.304;19.028;2023-03-21T10:37:39;98392.88;;;12.64;54.39
40982;BME280;26708;50.304;19.028;2023-03-21T10:39:48;98398.06;;;12.67;54.18
40982;BME280;26708;50.304;19.028;2023-03-21T10:41:55;98397.28;;;12.62;53.72
40982;BME280;26708;50.304;19.028;2023-03-21T10:44:06;98365.19;;;12.41;53.51
40982;BME280;26708;50.304;19.028;2023-03-21T10:46:18;98349.53;;;12.33;53.53
40982;BME280;26708;50.304;19.028;2023-03-21T10:48:25;98407.78;;;12.62;54.08
40982;BME280;26708;50.304;19.028;2023-03-21T10:50:37;98411.25;;;12.63;54.18
40982;BME280;26708;50.304;19.028;2023-03-21T10:52:46;98402.53;;;12.61;54.66
40982;BME280;26708;50.304;19.028;2023-03-21T10:55:16;98406.91;;;12.63;55.01
40982;BME280;26708;50.304;19.028;2023-03-21T10:57:26;98411.19;;;12.69;55.17
40982;BME280;26708;50.304;19.028;2023-03-21T10:59:38;98405.03;;;12.71;55.55
40982;BME280;26708;50.304;19.028;2023-03-21T11:01:51;98369.25;;;12.63;55.24
40982;BME280;26708;50.304;19.028;2023-03-21T11:04:08;98264.25;;;12.01;55.35
40982;BME280;26708;50.304;19.028;2023-03-21T11:06:26;98397.84;;;12.84;54.85
40982;BME280;26708;50.304;19.028;2023-03-21T11:08:39;98277.13;;;12.19;54.26
40982;BME280;26708;50.304;19.028;2023-03-21T11:10:59;98382.91;;;12.87;54.32
40982;BME280;26708;50.304;19.028;2023-03-21T11:13:12;98389.69;;;13.00;54.93
40982;BME280;26708;50.304;19.028;2023-03-21T11:15:28;98389.66;;;13.05;54.51
40982;BME280;26708;50.304;19.028;2023-03-21T11:17:35;98390.47;;;13.11;54.21
40982;BME280;26708;50.304;19.028;2023-03-21T11:19:47;98369.44;;;13.10;54.15
40982;BME280;26708;50.304;19.028;2023-03-21T11:21:55;98390.31;;;13.22;53.01
40982;BME280;26708;50.304;19.028;2023-03-21T11:24:07;98225.59;;;12.15;52.83